Time;durP1;ratioP1;P1;durP2;ratioP2;P2;SDS_P1;SDS_P2;PMS_P1;PMS_P2;Temp;Humidity;BMP_temperature;BMP_pressure;BME280_temperature;BME280_humidity;BME280_pressure;Samples;Min_cycle;Max_cycle;Signal;HPM_P1;HPM_P2
2023/10/22 00:00:51;;;;;;;9.10;8.30;;;22.00;58.70;;;;;;5032943;28;20210;-67
2023/10/22 00:03:16;;;;;;;8.70;8.00;;;22.00;58.70;;;;;;5036784;28;20249;-69
2023/10/22 00:05:42;;;;;;;9.43;8.73;;;22.00;58.70;;;;;;5037055;28;20235;-67
2023/10/22 00:08:08;;;;;;;8.67;8.00;;;22.10;58.80;;;;;;5033322;28;20179;-67
2023/10/22 00:10:34;;;;;;;10.00;9.20;;;22.00;58.70;;;;;;5044335;28;20232;-66
2023/10/22 00:12:59;;;;;;;8.80;8.10;;;22.10;58.80;;;;;;5052741;28;20943;-67
2023/10/22 00:15:25;;;;;;;8.60;7.90;;;22.00;58.70;;;;;;5048325;28;20207;-67
2023/10/22 00:17:51;;;;;;;8.87;8.00;;;22.00;58.70;;;;;;5042435;28;20182;-67
2023/10/22 00:20:17;;;;;;;8.83;8.23;;;22.00;58.70;;;;;;5039684;28;20183;-68
2023/10/22 00:22:42;;;;;;;8.40;7.70;;;22.10;58.70;;;;;;5037709;28;20195;-67
2023/10/22 00:25:09;;;;;;;8.27;7.67;;;22.00;58.70;;;;;;5033705;28;20269;-68
2023/10/22 00:27:34;;;;;;;9.17;8.43;;;22.00;58.70;;;;;;5033590;28;20191;-68
2023/10/22 00:30:00;;;;;;;8.23;7.53;;;22.10;58.70;;;;;;5045751;28;20794;-67
2023/10/22 00:32:27;;;;;;;8.97;8.27;;;22.00;58.60;;;;;;5049318;28;20188;-67
2023/10/22 00:34:53;;;;;;;9.33;8.53;;;22.00;58.60;;;;;;5046074;28;20457;-69
2023/10/22 00:37:18;;;;;;;9.30;8.60;;;22.00;58.70;;;;;;5033799;28;20623;-67
2023/10/22 00:39:44;;;;;;;7.80;7.20;;;22.00;58.60;;;;;;5046366;28;20492;-68
2023/10/22 00:42:10;;;;;;;9.10;8.40;;;22.00;58.60;;;;;;5052048;28;20183;-66
2023/10/22 00:44:35;;;;;;;8.90;8.20;;;22.10;58.70;;;;;;5052080;28;20226;-67
2023/10/22 00:47:05;;;;;;;8.30;7.70;;;22.00;58.60;;;;;;5052250;28;20418;-67
2023/10/22 00:49:31;;;;;;;8.03;7.43;;;22.00;58.70;;;;;;5053326;28;20676;-66
2023/10/22 00:51:57;;;;;;;7.93;7.33;;;22.00;58.60;;;;;;5053272;28;20406;-67
2023/10/22 00:54:25;;;;;;;8.37;7.77;;;22.10;58.70;;;;;;5053048;28;20469;-67
2023/10/22 00:56:52;;;;;;;7.30;6.80;;;22.10;58.70;;;;;;5032634;28;20434;-66
2023/10/22 00:59:18;;;;;;;7.33;6.73;;;22.00;58.60;;;;;;5043652;28;20512;-67
2023/10/22 01:01:44;;;;;;;8.00;7.40;;;22.00;58.60;;;;;;5052057;28;20421;-67
2023/10/22 01:04:10;;;;;;;6.83;6.33;;;22.00;58.60;;;;;;5047577;28;20476;-67
2023/10/22 01:06:36;;;;;;;8.20;7.60;;;22.10;58.70;;;;;;5048358;28;20183;-67
2023/10/22 01:09:03;;;;;;;7.17;6.57;;;22.10;58.70;;;;;;5032684;28;20448;-68
2023/10/22 01:11:29;;;;;;;6.90;6.37;;;22.10;58.70;;;;;;5041149;28;20179;-68
2023/10/22 01:13:55;;;;;;;7.60;7.00;;;22.00;58.50;;;;;;5043965;28;20822;-68
2023/10/22 01:16:21;;;;;;;7.33;6.80;;;22.00;58.60;;;;;;5041515;28;20187;-68
2023/10/22 01:18:47;;;;;;;7.50;6.90;;;22.10;58.60;;;;;;5032289;28;20454;-67
2023/10/22 01:21:12;;;;;;;6.67;6.13;;;22.00;58.50;;;;;;5045213;28;20452;-69
2023/10/22 01:23:38;;;;;;;7.43;6.73;;;22.00;58.50;;;;;;5052220;28;20207;-69
2023/10/22 01:26:06;;;;;;;6.73;6.23;;;22.00;58.60;;;;;;5050962;28;20206;-68
2023/10/22 01:28:33;;;;;;;7.53;6.93;;;22.00;58.50;;;;;;5042559;28;20521;-67
2023/10/22 01:30:59;;;;;;;7.20;6.60;;;22.10;58.60;;;;;;5039308;28;20465;-68
2023/10/22 01:33:25;;;;;;;7.00;6.50;;;22.10;58.60;;;;;;5036495;28;20470;-67
2023/10/22 01:35:51;;;;;;;7.17;6.67;;;22.10;58.60;;;;;;5035574;28;20208;-68
2023/10/22 01:38:16;;;;;;;6.30;5.80;;;22.10;58.60;;;;;;5031704;28;20434;-68
2023/10/22 01:40:42;;;;;;;7.13;6.63;;;22.10;58.60;;;;;;5042202;28;20229;-67
2023/10/22 01:43:08;;;;;;;7.33;6.73;;;22.00;58.50;;;;;;5034164;28;20263;-68
2023/10/22 01:45:34;;;;;;;6.63;6.13;;;22.00;58.50;;;;;;5046256;28;20213;-67
2023/10/22 01:47:59;;;;;;;6.80;6.30;;;22.10;58.60;;;;;;5037828;28;20601;-67
2023/10/22 01:50:25;;;;;;;6.90;6.40;;;22.00;58.50;;;;;;5035280;28;20426;-67
2023/10/22 01:52:51;;;;;;;6.53;6.10;;;22.00;58.50;;;;;;5031388;28;20218;-67
2023/10/22 01:55:17;;;;;;;6.63;6.03;;;22.10;58.50;;;;;;5031172;28;20574;-67
2023/10/22 01:57:43;;;;;;;6.40;5.90;;;22.10;58.50;;;;;;5034924;28;20183;-66
2023/10/22 02:00:12;;;;;;;5.93;5.43;;;22.00;58.50;;;;;;5031661;28;20521;-67
2023/10/22 02:02:39;;;;;;;7.20;6.60;;;22.00;58.50;;;;;;5032828;28;20176;-67
2023/10/22 02:05:05;;;;;;;6.10;5.60;;;22.00;58.50;;;;;;5037048;28;20473;-68
2023/10/22 02:07:31;;;;;;;6.43;5.93;;;22.00;58.50;;;;;;5049550;28;20471;-67
2023/10/22 02:09:57;;;;;;;6.03;5.60;;;22.10;58.50;;;;;;5036096;28;20944;-67
2023/10/22 02:12:29;;;;;;;6.17;5.67;;;22.10;58.50;;;;;;5033336;28;20438;-67
2023/10/22 02:14:55;;;;;;;6.00;5.60;;;22.00;58.40;;;;;;5039142;28;20210;-67
2023/10/22 02:17:20;;;;;;;5.57;5.07;;;22.00;58.50;;;;;;5046373;28;20484;-66
2023/10/22 02:19:46;;;;;;;6.00;5.50;;;22.00;58.40;;;;;;5043571;28;20465;-67
2023/10/22 02:22:12;;;;;;;6.40;5.90;;;22.10;58.50;;;;;;5039334;28;20729;-68
2023/10/22 02:24:39;;;;;;;5.97;5.53;;;22.10;58.50;;;;;;5031461;28;20212;-69
2023/10/22 02:27:05;;;;;;;6.50;6.10;;;22.00;58.40;;;;;;5031469;28;20179;-68
2023/10/22 02:29:31;;;;;;;6.67;6.07;;;22.00;58.70;;;;;;5031062;28;20833;-66
2023/10/22 02:31:56;;;;;;;6.23;5.73;;;22.00;58.40;;;;;;5040802;28;20179;-67
2023/10/22 02:34:22;;;;;;;6.10;5.50;;;22.00;58.40;;;;;;5030629;28;20800;-67
2023/10/22 02:36:48;;;;;;;5.80;5.30;;;22.10;58.40;;;;;;5038131;28;20262;-67
2023/10/22 02:39:13;;;;;;;6.30;5.70;;;22.00;58.40;;;;;;5030614;28;20183;-67
2023/10/22 02:41:39;;;;;;;5.43;5.03;;;22.00;58.30;;;;;;5038479;28;20196;-68
2023/10/22 02:44:04;;;;;;;5.37;4.97;;;22.00;58.40;;;;;;5045998;28;20290;-68
2023/10/22 02:46:30;;;;;;;6.00;5.50;;;22.00;58.30;;;;;;5030988;28;20220;-67
2023/10/22 02:48:56;;;;;;;5.37;4.97;;;22.00;58.40;;;;;;5030401;28;20187;-68
2023/10/22 02:54:06;;;;;;;5.43;5.03;;;22.00;58.30;;;;;;5044250;28;20210;-67
2023/10/22 02:56:32;;;;;;;5.50;5.10;;;22.00;58.40;;;;;;5030741;28;20426;-69
2023/10/22 02:58:58;;;;;;;5.03;4.63;;;22.00;58.30;;;;;;5032875;28;20438;-67
2023/10/22 03:01:23;;;;;;;5.20;4.80;;;22.00;58.30;;;;;;5031363;28;20669;-68
2023/10/22 03:03:49;;;;;;;4.97;4.57;;;22.00;58.30;;;;;;5031100;28;20218;-67
2023/10/22 03:06:14;;;;;;;5.07;4.70;;;22.00;58.30;;;;;;5049380;28;20184;-67
2023/10/22 03:08:41;;;;;;;5.10;4.70;;;22.00;58.30;;;;;;5041185;28;20651;-66
2023/10/22 03:11:15;;;;;;;5.37;4.90;;;22.00;58.30;;;;;;5036806;28;20184;-68
2023/10/22 03:13:42;;;;;;;5.17;4.77;;;22.00;58.30;;;;;;5034243;28;20962;-67
2023/10/22 03:16:14;;;;;;;5.00;4.60;;;22.00;58.30;;;;;;5050683;28;20502;-68
2023/10/22 03:18:40;;;;;;;4.37;4.07;;;22.10;58.40;;;;;;5040193;28;20986;-67
2023/10/22 03:21:19;;;;;;;4.63;4.23;;;22.00;58.30;;;;;;5036653;28;20439;-68
2023/10/22 03:23:45;;;;;;;4.83;4.43;;;22.00;58.30;;;;;;5035483;28;20830;-67
2023/10/22 03:26:14;;;;;;;5.30;4.90;;;22.00;58.30;;;;;;5048863;28;20810;-69
2023/10/22 03:28:40;;;;;;;4.67;4.27;;;22.00;58.30;;;;;;5050349;28;20417;-67
2023/10/22 03:31:07;;;;;;;5.20;4.80;;;22.00;58.30;;;;;;5049314;28;20982;-66
2023/10/22 03:33:33;;;;;;;4.97;4.57;;;22.00;58.30;;;;;;5050960;28;20452;-67
2023/10/22 03:36:00;;;;;;;4.40;4.10;;;22.00;58.30;;;;;;5039234;28;20961;-68
2023/10/22 03:38:26;;;;;;;4.70;4.30;;;22.00;58.30;;;;;;5048475;28;20187;-67
2023/10/22 03:41:05;;;;;;;4.63;4.33;;;22.00;58.30;;;;;;5050774;28;20475;-67
2023/10/22 03:43:31;;;;;;;4.90;4.50;;;22.10;58.30;;;;;;5050392;28;20725;-67
2023/10/22 03:45:58;;;;;;;4.10;3.80;;;22.00;58.30;;;;;;5050394;28;20432;-67
2023/10/22 03:48:25;;;;;;;4.80;4.40;;;22.00;58.20;;;;;;5049398;28;20433;-66
2023/10/22 03:50:51;;;;;;;4.43;4.03;;;22.00;58.20;;;;;;5050543;28;20788;-67
2023/10/22 03:53:16;;;;;;;4.53;4.23;;;22.00;58.20;;;;;;5049958;28;20437;-67
2023/10/22 03:55:42;;;;;;;4.17;3.87;;;22.00;58.20;;;;;;5048984;28;20764;-65
2023/10/22 03:58:08;;;;;;;3.70;3.40;;;22.00;58.20;;;;;;5044268;28;20207;-68
2023/10/22 04:00:34;;;;;;;3.30;3.10;;;22.00;58.20;;;;;;5029572;28;20194;-67
2023/10/22 04:03:01;;;;;;;4.43;4.03;;;22.00;58.10;;;;;;5042620;28;20175;-68
2023/10/22 04:05:26;;;;;;;3.90;3.60;;;22.00;58.10;;;;;;5048558;28;20206;-68
2023/10/22 04:07:52;;;;;;;4.20;3.90;;;22.00;58.10;;;;;;5035764;28;20438;-68
2023/10/22 04:10:18;;;;;;;3.20;3.00;;;22.00;58.10;;;;;;5038960;28;20175;-68
2023/10/22 04:12:44;;;;;;;4.10;3.80;;;22.00;58.10;;;;;;5041808;28;20176;-67
2023/10/22 04:15:10;;;;;;;4.97;4.43;;;22.00;58.10;;;;;;5029861;28;20200;-67
2023/10/22 04:17:36;;;;;;;4.00;3.70;;;22.00;58.10;;;;;;5032226;28;20441;-67
2023/10/22 04:20:01;;;;;;;3.50;3.20;;;22.00;58.10;;;;;;5043017;28;20206;-67
2023/10/22 04:22:27;;;;;;;4.10;3.80;;;22.00;58.10;;;;;;5041767;28;20841;-68
2023/10/22 04:24:53;;;;;;;3.70;3.40;;;22.00;58.10;;;;;;5053581;28;20206;-68
2023/10/22 04:27:18;;;;;;;3.63;3.33;;;22.00;58.10;;;;;;5050489;28;20253;-68
2023/10/22 04:29:46;;;;;;;4.10;3.67;;;22.00;58.10;;;;;;5052482;28;20516;-68
2023/10/22 04:32:12;;;;;;;3.87;3.57;;;22.00;58.20;;;;;;5053635;28;20178;-66
2023/10/22 04:34:38;;;;;;;3.93;3.63;;;22.00;58.10;;;;;;5052663;28;20453;-69
2023/10/22 04:37:04;;;;;;;3.50;3.20;;;22.00;58.10;;;;;;5053593;28;20416;-66
2023/10/22 04:39:30;;;;;;;3.97;3.67;;;22.00;58.10;;;;;;5053624;28;20262;-67
2023/10/22 04:41:56;;;;;;;4.10;3.80;;;22.00;58.10;;;;;;5053439;28;20492;-69
2023/10/22 04:44:22;;;;;;;4.03;3.73;;;22.00;58.10;;;;;;5051335;28;20556;-67
2023/10/22 04:46:47;;;;;;;3.70;3.43;;;22.00;58.10;;;;;;5052500;28;20179;-67
2023/10/22 04:49:13;;;;;;;3.40;3.10;;;22.00;58.10;;;;;;5053205;28;20179;-67
2023/10/22 04:51:40;;;;;;;3.73;3.50;;;22.00;58.10;;;;;;5034053;28;20426;-68
2023/10/22 04:54:05;;;;;;;3.83;3.53;;;22.00;58.10;;;;;;5041189;28;20207;-68
2023/10/22 04:56:32;;;;;;;3.77;3.47;;;22.00;58.10;;;;;;5033109;28;20442;-67
2023/10/22 04:58:57;;;;;;;3.70;3.40;;;22.00;58.10;;;;;;5036611;28;20189;-67
2023/10/22 05:01:23;;;;;;;3.87;3.37;;;22.00;58.10;;;;;;5039674;28;20438;-68
2023/10/22 05:03:49;;;;;;;3.20;3.00;;;22.00;58.10;;;;;;5034963;28;20685;-68
2023/10/22 05:06:14;;;;;;;2.97;2.77;;;22.00;58.10;;;;;;5044155;28;20610;-68
2023/10/22 05:08:40;;;;;;;3.60;3.30;;;22.00;58.00;;;;;;5037965;28;20265;-67
2023/10/22 05:11:11;;;;;;;4.63;3.20;;;22.00;58.00;;;;;;5032140;28;20265;-67
2023/10/22 05:13:36;;;;;;;2.93;2.73;;;22.00;58.00;;;;;;5032174;28;20957;-67
2023/10/22 05:16:02;;;;;;;3.17;2.87;;;22.00;58.00;;;;;;5044261;28;20466;-68
2023/10/22 05:18:28;;;;;;;3.60;3.30;;;22.00;58.00;;;;;;5033940;28;20191;-67
2023/10/22 05:21:04;;;;;;;2.97;2.77;;;22.00;58.00;;;;;;5031081;28;20254;-68
2023/10/22 05:23:30;;;;;;;3.60;3.30;;;22.00;58.10;;;;;;5051038;28;20198;-68
2023/10/22 05:26:11;;;;;;;3.37;3.17;;;22.00;58.10;;;;;;5050636;28;20464;-69
2023/10/22 05:28:37;;;;;;;3.00;2.80;;;22.00;58.00;;;;;;5052555;28;20686;-68
2023/10/22 05:31:14;;;;;;;3.20;3.00;;;22.00;58.00;;;;;;5040944;28;20438;-68
2023/10/22 05:33:40;;;;;;;2.87;2.67;;;22.00;58.00;;;;;;5050903;28;20772;-68
2023/10/22 05:36:16;;;;;;;3.20;3.00;;;22.00;58.00;;;;;;5034091;28;20456;-66
2023/10/22 05:38:42;;;;;;;2.80;2.60;;;22.00;58.00;;;;;;5031889;28;20444;-67
2023/10/22 05:41:15;;;;;;;3.33;3.03;;;22.00;58.00;;;;;;5038398;28;20430;-68
2023/10/22 05:43:40;;;;;;;3.17;2.87;;;22.00;58.00;;;;;;5032051;28;20207;-67
2023/10/22 05:46:06;;;;;;;3.23;2.93;;;22.00;58.00;;;;;;5039496;28;20454;-67
2023/10/22 05:48:31;;;;;;;3.00;2.80;;;22.00;58.00;;;;;;5043807;28;20187;-67
2023/10/22 05:51:00;;;;;;;2.60;2.40;;;22.00;58.00;;;;;;5041417;28;20684;-67
2023/10/22 05:53:25;;;;;;;2.83;2.57;;;22.00;57.90;;;;;;5052161;28;20178;-67
2023/10/22 05:55:58;;;;;;;2.47;2.27;;;22.00;57.90;;;;;;5042559;28;20856;-67
2023/10/22 05:58:26;;;;;;;3.10;2.80;;;22.00;57.90;;;;;;5043379;28;20180;-67
2023/10/22 06:00:52;;;;;;;2.53;2.33;;;22.00;57.90;;;;;;5036610;28;20437;-67
2023/10/22 06:03:18;;;;;;;3.27;2.60;;;22.00;57.90;;;;;;5037659;28;20456;-68
2023/10/22 06:05:46;;;;;;;2.50;2.30;;;22.00;57.80;;;;;;5048754;28;20453;-68
2023/10/22 06:08:12;;;;;;;3.00;2.70;;;22.00;57.80;;;;;;5030067;28;20187;-68
2023/10/22 06:10:42;;;;;;;2.50;2.30;;;22.00;57.90;;;;;;5034756;28;20484;-69
2023/10/22 06:13:08;;;;;;;2.93;2.60;;;22.00;57.90;;;;;;5035975;28;20178;-67
2023/10/22 06:15:40;;;;;;;3.40;3.10;;;21.90;57.80;;;;;;5051566;28;20430;-67
2023/10/22 06:18:07;;;;;;;2.40;2.20;;;22.00;57.80;;;;;;5051464;28;20425;-68
2023/10/22 06:20:36;;;;;;;2.90;2.70;;;22.00;57.80;;;;;;5051612;28;20394;-68
2023/10/22 06:23:02;;;;;;;3.10;2.60;;;22.00;57.70;;;;;;5033731;28;20782;-68
2023/10/22 06:25:29;;;;;;;2.50;2.30;;;21.90;57.60;;;;;;5031184;28;20450;-68
2023/10/22 06:27:55;;;;;;;2.77;2.57;;;21.90;57.60;;;;;;5034708;28;20421;-68
2023/10/22 06:30:25;;;;;;;2.60;2.40;;;22.00;57.60;;;;;;5035650;28;20439;-68
2023/10/22 06:32:58;;;;;;;2.90;2.60;;;22.00;57.60;;;;;;5042838;28;20421;-69
2023/10/22 06:35:27;;;;;;;2.80;2.60;;;22.00;57.60;;;;;;5039021;28;20438;-67
2023/10/22 06:37:53;;;;;;;3.07;2.77;;;21.90;57.60;;;;;;5031351;28;20410;-69
2023/10/22 06:40:20;;;;;;;3.20;2.43;;;22.00;57.70;;;;;;5038560;28;20429;-67
2023/10/22 06:42:47;;;;;;;2.43;2.23;;;22.00;57.70;;;;;;5036401;28;20529;-67
2023/10/22 06:45:12;;;;;;;2.90;2.70;;;22.00;57.70;;;;;;5034737;28;20474;-68
2023/10/22 06:47:38;;;;;;;2.60;2.40;;;22.00;57.70;;;;;;5031205;28;20755;-69
2023/10/22 06:50:05;;;;;;;2.57;2.37;;;22.00;57.70;;;;;;5038948;28;20210;-67
2023/10/22 06:52:31;;;;;;;2.53;2.33;;;22.00;57.80;;;;;;5045944;28;20799;-69
2023/10/22 06:54:57;;;;;;;2.60;2.27;;;22.00;57.80;;;;;;5034876;28;20438;-69
2023/10/22 06:57:22;;;;;;;2.93;2.60;;;22.00;57.80;;;;;;5033085;28;20433;-67
2023/10/22 06:59:48;;;;;;;3.10;2.30;;;22.00;57.90;;;;;;5037240;28;20187;-68
2023/10/22 07:02:15;;;;;;;2.50;2.30;;;22.00;57.80;;;;;;5031946;28;20255;-68
2023/10/22 07:04:41;;;;;;;5.30;2.90;;;21.90;57.80;;;;;;5030611;28;20520;-68
2023/10/22 07:07:08;;;;;;;2.63;2.40;;;21.90;57.80;;;;;;5030833;28;20410;-68
2023/10/22 07:09:33;;;;;;;2.00;1.80;;;22.00;57.90;;;;;;5030343;28;20175;-67
2023/10/22 07:11:59;;;;;;;2.70;2.47;;;22.00;57.90;;;;;;5030965;28;20406;-68
2023/10/22 07:14:25;;;;;;;2.60;2.40;;;22.00;58.00;;;;;;5029375;28;20231;-68
2023/10/22 07:16:51;;;;;;;2.70;2.50;;;22.00;58.00;;;;;;5030556;28;20651;-68
2023/10/22 07:19:17;;;;;;;2.37;2.00;;;22.00;58.00;;;;;;5029613;28;20492;-68
2023/10/22 07:21:42;;;;;;;2.70;2.50;;;22.00;58.00;;;;;;5031606;28;20683;-67
2023/10/22 07:24:08;;;;;;;2.60;2.40;;;22.00;58.10;;;;;;5030272;28;20215;-68
2023/10/22 07:26:34;;;;;;;2.50;2.30;;;22.00;58.00;;;;;;5029416;28;20183;-67
2023/10/22 07:28:59;;;;;;;2.60;2.33;;;22.00;58.00;;;;;;5046305;28;20482;-68
2023/10/22 07:31:25;;;;;;;2.50;2.30;;;22.00;58.10;;;;;;5029918;28;20198;-67
2023/10/22 07:33:51;;;;;;;3.20;2.53;;;22.00;58.00;;;;;;5036038;28;20187;-69
2023/10/22 07:36:16;;;;;;;2.53;2.13;;;22.00;58.00;;;;;;5050843;28;20178;-67
2023/10/22 07:38:42;;;;;;;3.10;2.77;;;22.00;58.10;;;;;;5049403;28;21122;-68
2023/10/22 07:41:15;;;;;;;2.70;2.40;;;22.00;58.00;;;;;;5030503;28;20254;-68
2023/10/22 07:43:40;;;;;;;3.00;2.70;;;22.00;58.00;;;;;;5030623;28;20214;-68
2023/10/22 07:46:07;;;;;;;2.23;2.03;;;22.00;58.00;;;;;;5046401;28;20453;-66
2023/10/22 07:48:33;;;;;;;2.60;2.40;;;22.00;58.10;;;;;;5039506;28;20172;-68
2023/10/22 07:51:28;;;;;;;3.77;2.27;;;22.00;58.10;;;;;;5045218;28;20451;-68
2023/10/22 07:53:53;;;;;;;2.47;2.27;;;22.00;58.10;;;;;;5044728;28;20716;-68
2023/10/22 07:56:19;;;;;;;3.20;2.90;;;22.00;58.20;;;;;;5050746;28;20437;-65
2023/10/22 07:58:44;;;;;;;2.67;2.40;;;22.00;58.20;;;;;;5044635;28;20618;-67
2023/10/22 08:01:10;;;;;;;3.20;2.83;;;22.00;58.30;;;;;;5051823;28;20209;-67
2023/10/22 08:03:36;;;;;;;3.00;2.70;;;22.00;58.30;;;;;;5042201;28;20207;-68
2023/10/22 08:06:03;;;;;;;3.13;2.37;;;22.00;58.30;;;;;;5033777;28;20226;-66
2023/10/22 08:08:29;;;;;;;3.27;2.40;;;22.00;58.30;;;;;;5039316;28;20191;-66
2023/10/22 08:10:59;;;;;;;2.77;2.57;;;22.00;58.30;;;;;;5051759;28;20792;-68
2023/10/22 08:13:25;;;;;;;3.50;3.13;;;22.00;58.30;;;;;;5040531;28;20426;-68
2023/10/22 08:15:51;;;;;;;2.93;2.60;;;22.00;58.30;;;;;;5037842;28;20454;-68
2023/10/22 08:18:17;;;;;;;4.73;2.70;;;22.00;58.20;;;;;;5034292;28;20469;-66
2023/10/22 08:20:42;;;;;;;2.67;2.47;;;22.00;58.10;;;;;;5053110;28;20430;-67
2023/10/22 08:23:08;;;;;;;3.87;2.20;;;22.00;58.00;;;;;;5053614;28;20185;-68
2023/10/22 08:25:34;;;;;;;3.23;2.50;;;22.00;58.00;;;;;;5053650;28;20286;-68
2023/10/22 08:28:00;;;;;;;2.43;2.23;;;22.00;58.00;;;;;;5053791;28;20485;-66
2023/10/22 08:30:26;;;;;;;3.00;2.80;;;22.00;58.00;;;;;;5054222;28;20667;-67
2023/10/22 08:32:51;;;;;;;2.90;2.10;;;22.10;58.10;;;;;;5053596;28;20175;-67
2023/10/22 08:35:17;;;;;;;3.87;2.90;;;22.00;58.00;;;;;;5053619;28;20433;-69
2023/10/22 08:37:44;;;;;;;2.50;2.30;;;22.00;58.00;;;;;;5053449;28;20207;-67
2023/10/22 08:40:10;;;;;;;3.73;2.10;;;22.00;58.00;;;;;;5043508;28;20180;-67
2023/10/22 08:42:36;;;;;;;2.40;2.20;;;22.00;58.00;;;;;;5052804;28;20416;-67
2023/10/22 08:45:04;;;;;;;4.03;2.87;;;22.10;58.10;;;;;;5052000;28;20462;-67
2023/10/22 08:47:30;;;;;;;3.13;2.40;;;22.10;58.10;;;;;;5053032;28;20426;-68
2023/10/22 08:49:56;;;;;;;2.80;2.43;;;22.10;58.10;;;;;;5053191;28;20780;-66
2023/10/22 08:52:23;;;;;;;3.13;2.87;;;22.00;58.10;;;;;;5053140;28;20409;-68
2023/10/22 08:54:49;;;;;;;2.47;2.27;;;22.00;58.10;;;;;;5053396;28;20441;-67
2023/10/22 08:57:19;;;;;;;3.60;2.40;;;22.00;58.60;;;;;;5053134;28;20405;-67
2023/10/22 08:59:45;;;;;;;3.37;2.30;;;22.00;58.10;;;;;;5053197;28;20402;-69
2023/10/22 09:02:12;;;;;;;2.73;2.03;;;22.10;58.20;;;;;;5053156;28;20416;-67
2023/10/22 09:04:38;;;;;;;4.90;3.10;;;22.00;58.10;;;;;;5053009;28;20210;-69
2023/10/22 09:07:04;;;;;;;3.40;2.80;;;22.00;58.10;;;;;;5052823;28;20971;-69
2023/10/22 09:09:34;;;;;;;2.80;2.50;;;22.00;58.10;;;;;;5053094;28;20548;-70
2023/10/22 09:11:59;;;;;;;2.23;2.03;;;22.10;58.20;;;;;;5053224;28;20173;-69
2023/10/22 09:14:26;;;;;;;2.50;2.27;;;22.10;58.20;;;;;;5052900;28;21043;-68
2023/10/22 09:16:52;;;;;;;2.57;2.23;;;22.10;58.20;;;;;;5051463;28;20174;-69
2023/10/22 09:19:37;;;;;;;2.70;2.30;;;22.00;58.10;;;;;;5052811;28;20437;-69
2023/10/22 09:22:06;;;;;;;4.10;2.67;;;22.10;58.10;;;;;;5052847;28;20919;-67
2023/10/22 09:24:47;;;;;;;3.80;2.53;;;22.10;58.10;;;;;;5052565;28;20472;-67
2023/10/22 09:27:26;;;;;;;2.87;2.50;;;22.00;58.10;;;;;;5052950;28;20414;-66
2023/10/22 09:29:53;;;;;;;2.90;2.20;;;22.00;58.10;;;;;;5052706;28;20434;-67
2023/10/22 09:32:19;;;;;;;2.20;1.90;;;22.10;58.10;;;;;;5052749;28;20409;-66
2023/10/22 09:34:45;;;;;;;2.13;1.93;;;22.00;58.00;;;;;;5052418;28;20437;-66
2023/10/22 09:37:11;;;;;;;2.70;2.17;;;22.00;58.10;;;;;;5052339;28;20421;-66
2023/10/22 09:39:38;;;;;;;2.53;2.33;;;22.10;58.20;;;;;;5052706;28;20931;-66
2023/10/22 09:42:05;;;;;;;2.70;2.10;;;22.10;58.20;;;;;;5052457;28;20308;-66
2023/10/22 09:44:34;;;;;;;2.33;2.13;;;22.10;58.20;;;;;;5052332;28;21085;-68
2023/10/22 09:47:07;;;;;;;2.33;2.13;;;22.10;58.20;;;;;;5052333;28;20409;-69
2023/10/22 09:49:35;;;;;;;2.87;2.37;;;22.10;58.20;;;;;;5052477;28;20390;-67
2023/10/22 09:52:06;;;;;;;3.33;2.63;;;22.10;58.20;;;;;;5052246;28;20402;-67
2023/10/22 09:54:41;;;;;;;2.17;1.93;;;22.10;58.20;;;;;;5052030;28;20433;-66
2023/10/22 09:57:08;;;;;;;2.90;2.70;;;22.10;58.30;;;;;;5051851;28;20410;-67
2023/10/22 09:59:35;;;;;;;2.30;2.10;;;22.10;58.20;;;;;;5050677;28;20494;-65
2023/10/22 10:02:01;;;;;;;3.67;2.10;;;22.10;58.30;;;;;;5050733;28;21131;-66
2023/10/22 10:04:28;;;;;;;2.43;2.20;;;22.10;58.30;;;;;;5051668;28;20506;-67
2023/10/22 10:06:54;;;;;;;2.17;1.83;;;22.10;58.20;;;;;;5051919;28;20404;-68
2023/10/22 10:09:23;;;;;;;2.40;2.20;;;22.10;58.20;;;;;;5050410;28;20401;-69
2023/10/22 10:11:56;;;;;;;3.50;2.00;;;22.10;58.20;;;;;;5052052;28;20807;-67
2023/10/22 10:14:42;;;;;;;2.47;1.60;;;22.10;58.20;;;;;;5051808;28;20444;-65
2023/10/22 10:17:09;;;;;;;3.03;2.20;;;22.20;58.20;;;;;;5053573;28;20836;-66
2023/10/22 10:19:35;;;;;;;2.10;1.87;;;22.10;58.10;;;;;;5052068;28;20459;-66
2023/10/22 10:22:00;;;;;;;4.23;1.83;;;22.10;58.10;;;;;;5051959;28;20484;-67
2023/10/22 10:24:28;;;;;;;2.67;1.97;;;22.10;58.10;;;;;;5051528;28;20233;-68
2023/10/22 10:26:56;;;;;;;3.20;2.20;;;22.10;58.10;;;;;;5051582;28;20603;-68
2023/10/22 10:29:32;;;;;;;2.53;1.80;;;22.10;58.10;;;;;;5051775;28;20410;-67
2023/10/22 10:32:13;;;;;;;3.27;2.27;;;22.20;58.20;;;;;;5051741;28;21108;-66
2023/10/22 10:34:40;;;;;;;2.50;1.90;;;22.20;58.30;;;;;;5051278;28;20429;-67
2023/10/22 10:37:16;;;;;;;1.90;1.70;;;22.20;58.30;;;;;;5049934;28;20424;-65
2023/10/22 10:39:44;;;;;;;2.60;2.07;;;22.20;58.30;;;;;;5051207;28;20393;-66
2023/10/22 10:42:11;;;;;;;4.60;2.30;;;22.20;58.40;;;;;;5051466;28;20424;-68
2023/10/22 10:44:55;;;;;;;2.30;2.10;;;22.20;58.50;;;;;;5051236;28;20538;-68
2023/10/22 10:47:20;;;;;;;2.73;2.13;;;22.20;58.50;;;;;;5051118;28;20405;-68
2023/10/22 10:50:05;;;;;;;3.07;2.70;;;22.20;58.50;;;;;;5051226;28;20917;-66
2023/10/22 10:52:56;;;;;;;3.50;2.23;;;22.20;58.50;;;;;;5049844;28;20584;-67
2023/10/22 10:55:22;;;;;;;3.10;2.07;;;22.20;58.50;;;;;;5051005;28;20444;-68
2023/10/22 10:57:49;;;;;;;2.10;1.90;;;22.20;58.50;;;;;;5050962;28;20402;-66
2023/10/22 11:00:19;;;;;;;2.50;2.30;;;22.20;58.50;;;;;;5050769;28;20658;-67
2023/10/22 11:02:46;;;;;;;2.57;2.37;;;22.20;58.50;;;;;;5051200;28;20418;-70
2023/10/22 11:05:14;;;;;;;4.90;2.10;;;22.20;58.50;;;;;;5050730;28;20878;-69
2023/10/22 11:07:42;;;;;;;4.43;2.40;;;22.20;58.50;;;;;;5051144;28;20504;-68
2023/10/22 11:10:13;;;;;;;3.43;2.00;;;22.20;58.40;;;;;;5051187;28;20416;-68
2023/10/22 11:12:40;;;;;;;5.30;2.73;;;22.20;58.40;;;;;;5050746;28;20412;-68
2023/10/22 11:15:09;;;;;;;5.23;2.13;;;22.20;58.60;;;;;;5050596;28;20816;-69
2023/10/22 11:17:35;;;;;;;5.63;2.17;;;22.20;58.40;;;;;;5050745;28;20445;-68
2023/10/22 11:20:01;;;;;;;4.43;2.33;;;22.20;58.30;;;;;;5050632;28;20795;-68
2023/10/22 11:22:27;;;;;;;2.47;1.87;;;22.20;58.30;;;;;;5050965;28;20423;-69
2023/10/22 11:24:55;;;;;;;4.40;1.87;;;22.20;58.30;;;;;;5050512;28;20602;-67
2023/10/22 11:27:22;;;;;;;5.27;2.17;;;22.20;58.30;;;;;;5050585;28;20437;-68
2023/10/22 11:29:49;;;;;;;3.40;2.17;;;22.20;58.30;;;;;;5050664;28;20487;-68
2023/10/22 11:32:16;;;;;;;2.80;2.10;;;22.20;58.30;;;;;;5053310;28;20412;-70
2023/10/22 11:34:47;;;;;;;3.17;2.23;;;22.20;58.30;;;;;;5054535;28;20437;-67
2023/10/22 11:37:13;;;;;;;2.83;2.03;;;22.20;58.30;;;;;;5054664;28;20436;-67
2023/10/22 11:39:41;;;;;;;3.43;1.90;;;22.20;58.30;;;;;;5054895;28;20922;-67
2023/10/22 11:42:10;;;;;;;2.87;2.57;;;22.20;58.30;;;;;;5054523;28;20413;-67
2023/10/22 11:44:36;;;;;;;2.47;1.90;;;22.20;58.30;;;;;;5054639;28;20857;-67
2023/10/22 11:47:21;;;;;;;3.17;2.10;;;22.20;58.30;;;;;;5054408;28;20409;-67
2023/10/22 11:49:47;;;;;;;3.27;2.00;;;22.20;58.30;;;;;;5054479;28;20425;-69
2023/10/22 11:52:34;;;;;;;3.40;2.03;;;22.20;58.30;;;;;;5054391;28;20437;-67
2023/10/22 11:55:01;;;;;;;4.00;2.67;;;22.20;58.40;;;;;;5052970;28;20230;-67
2023/10/22 11:57:27;;;;;;;3.93;1.90;;;22.20;58.40;;;;;;5054337;28;20420;-68
2023/10/22 11:59:52;;;;;;;2.93;2.20;;;22.20;58.30;;;;;;5054292;28;20409;-67
2023/10/22 12:02:18;;;;;;;2.27;1.67;;;22.20;58.30;;;;;;5054155;28;20586;-67
2023/10/22 12:04:43;;;;;;;2.30;1.83;;;22.20;58.30;;;;;;5054060;28;20210;-66
2023/10/22 12:07:09;;;;;;;2.93;1.70;;;22.20;58.30;;;;;;5054349;28;20627;-65
2023/10/22 12:09:34;;;;;;;2.80;2.00;;;22.20;58.30;;;;;;5054042;28;20175;-66
2023/10/22 12:12:00;;;;;;;2.20;1.77;;;22.20;58.30;;;;;;5053988;28;20179;-67
2023/10/22 12:14:25;;;;;;;2.27;1.70;;;22.20;58.30;;;;;;5053964;28;20195;-66
2023/10/22 12:16:51;;;;;;;2.70;1.73;;;22.20;58.30;;;;;;5053935;28;20225;-68
2023/10/22 12:19:17;;;;;;;4.53;3.10;;;22.20;58.30;;;;;;5053755;28;20194;-66
2023/10/22 12:21:42;;;;;;;2.60;1.60;;;22.20;58.30;;;;;;5054124;28;20189;-65
2023/10/22 12:24:08;;;;;;;2.77;1.90;;;22.20;58.30;;;;;;5053653;28;20202;-66
2023/10/22 12:26:34;;;;;;;2.47;1.80;;;22.20;58.20;;;;;;5053736;28;20179;-67
2023/10/22 12:28:59;;;;;;;2.10;1.73;;;22.20;58.30;;;;;;5053723;28;20171;-67
2023/10/22 12:31:25;;;;;;;2.20;1.80;;;22.20;58.30;;;;;;5053614;28;20254;-67
2023/10/22 12:33:50;;;;;;;3.70;2.20;;;22.20;58.30;;;;;;5053827;28;20189;-67
2023/10/22 12:36:16;;;;;;;4.03;2.30;;;22.20;58.30;;;;;;5053620;28;20183;-67
2023/10/22 12:38:41;;;;;;;3.37;1.80;;;22.20;58.30;;;;;;5053519;28;20524;-65
2023/10/22 12:41:07;;;;;;;2.00;1.80;;;22.20;58.30;;;;;;5053541;28;20939;-67
2023/10/22 12:43:33;;;;;;;2.90;1.53;;;22.20;58.30;;;;;;5052770;28;20202;-68
2023/10/22 12:46:03;;;;;;;2.27;2.07;;;22.20;58.30;;;;;;5053349;28;20202;-66
2023/10/22 12:48:28;;;;;;;2.60;1.80;;;22.20;58.30;;;;;;5053413;28;20194;-66
2023/10/22 12:50:54;;;;;;;2.93;2.33;;;22.20;58.30;;;;;;5051922;28;20780;-68